Time;durP1;ratioP1;P1;durP2;ratioP2;P2;SDS_P1;SDS_P2;PMS_P1;PMS_P2;Temp;Humidity;BMP_temperature;BMP_pressure;BME280_temperature;BME280_humidity;BME280_pressure;Samples;Min_cycle;Max_cycle;Signal;HPM_P1;HPM_P2
2022/05/30 00:01:20;;;;;;;11.40;11.00;;;7.60;99.90;;;;;;5022801;28;20228;-82
2022/05/30 00:03:48;;;;;;;11.70;11.30;;;7.60;99.90;;;;;;5023364;28;20240;-82
2022/05/30 00:06:29;;;;;;;11.40;11.00;;;7.50;99.90;;;;;;5023549;28;20293;-81
2022/05/30 00:08:57;;;;;;;11.70;11.30;;;7.40;99.90;;;;;;5024846;28;20224;-82
2022/05/30 00:11:27;;;;;;;11.50;11.10;;;7.40;99.90;;;;;;5024717;28;20228;-83
2022/05/30 00:13:55;;;;;;;11.10;10.70;;;7.40;99.90;;;;;;5022448;28;20234;-81
2022/05/30 00:16:24;;;;;;;11.30;10.90;;;7.30;99.90;;;;;;5022878;28;20271;-82
2022/05/30 00:18:53;;;;;;;11.33;10.93;;;7.30;99.90;;;;;;5022916;28;20225;-82
2022/05/30 00:21:33;;;;;;;11.47;11.07;;;7.30;99.90;;;;;;5023862;28;20232;-82
2022/05/30 00:24:01;;;;;;;11.43;11.03;;;7.30;99.90;;;;;;5025218;28;20282;-81
2022/05/30 00:26:30;;;;;;;11.40;11.00;;;7.30;99.90;;;;;;5024589;28;20224;-82
2022/05/30 00:28:59;;;;;;;11.30;10.90;;;7.20;99.90;;;;;;5023386;28;20237;-81
2022/05/30 00:31:30;;;;;;;11.37;10.97;;;7.20;99.90;;;;;;5024646;28;20232;-82
2022/05/30 00:33:59;;;;;;;11.37;10.97;;;7.20;99.90;;;;;;5024337;28;20288;-82
2022/05/30 00:36:28;;;;;;;11.20;10.80;;;7.20;99.90;;;;;;5024535;28;20262;-82
2022/05/30 00:38:58;;;;;;;11.40;11.00;;;7.10;99.90;;;;;;5025444;28;20277;-82
2022/05/30 00:41:27;;;;;;;11.50;11.10;;;7.10;99.90;;;;;;5025284;28;20258;-82
2022/05/30 00:43:58;;;;;;;11.50;11.10;;;7.00;99.90;;;;;;5024522;28;20338;-82
2022/05/30 00:46:26;;;;;;;11.47;11.07;;;6.90;99.90;;;;;;5025649;28;20314;-82
2022/05/30 00:48:57;;;;;;;11.40;11.00;;;6.90;99.90;;;;;;5025625;28;20249;-82
2022/05/30 00:51:34;;;;;;;11.63;11.23;;;6.80;99.90;;;;;;5025227;28;20236;-81
2022/05/30 00:54:04;;;;;;;11.53;11.13;;;6.80;99.90;;;;;;5025064;28;20223;-82
2022/05/30 00:56:40;;;;;;;11.60;11.20;;;6.80;99.90;;;;;;5023569;28;20220;-83
2022/05/30 00:59:08;;;;;;;11.37;10.97;;;6.80;99.90;;;;;;5024885;28;20248;-81
2022/05/30 01:01:41;;;;;;;11.30;10.90;;;6.80;99.90;;;;;;5023840;28;20285;-81
2022/05/30 01:07:09;;;;;;;11.40;11.00;;;6.70;99.90;;;;;;5021924;28;20224;-82
2022/05/30 01:09:41;;;;;;;11.37;10.97;;;6.70;99.90;;;;;;5022136;28;20280;-81
2022/05/30 01:12:13;;;;;;;11.23;10.83;;;6.70;99.90;;;;;;5031744;27;20212;-81
2022/05/30 01:14:43;;;;;;;11.30;10.90;;;6.60;99.90;;;;;;5037403;27;20225;-81
2022/05/30 01:17:14;;;;;;;11.57;11.17;;;6.60;99.90;;;;;;5037123;27;20280;-81
2022/05/30 01:20:02;;;;;;;11.47;11.07;;;6.60;99.90;;;;;;5035885;27;21016;-82
2022/05/30 01:23:00;;;;;;;11.40;11.00;;;6.60;99.90;;;;;;5022006;28;20266;-81
2022/05/30 01:26:04;;;;;;;11.50;11.10;;;6.60;99.90;;;;;;5020686;28;20262;-82
2022/05/30 01:28:46;;;;;;;11.57;11.17;;;6.60;99.90;;;;;;5022444;28;20258;-82
2022/05/30 01:31:17;;;;;;;11.30;10.90;;;6.60;99.90;;;;;;5021835;28;20239;-81
2022/05/30 01:33:46;;;;;;;11.37;10.97;;;6.60;99.90;;;;;;5020703;28;20224;-81
2022/05/30 01:36:15;;;;;;;11.27;10.87;;;6.60;99.90;;;;;;5019412;28;20293;-81
2022/05/30 01:38:43;;;;;;;11.30;10.90;;;6.50;99.90;;;;;;5020920;28;20225;-81
2022/05/30 01:41:14;;;;;;;11.50;11.10;;;6.50;99.90;;;;;;5019729;28;20223;-83
2022/05/30 01:43:46;;;;;;;11.60;11.20;;;6.40;99.90;;;;;;5020246;28;20236;-81
2022/05/30 01:46:17;;;;;;;11.40;11.00;;;6.40;99.90;;;;;;5020124;28;20240;-82
2022/05/30 01:48:46;;;;;;;11.40;11.00;;;6.40;99.90;;;;;;5020202;28;20228;-81
2022/05/30 01:51:15;;;;;;;11.70;11.30;;;6.30;99.90;;;;;;5019792;28;20232;-82
2022/05/30 01:53:43;;;;;;;11.23;10.83;;;6.20;99.90;;;;;;5019708;28;20243;-81
2022/05/30 01:56:14;;;;;;;11.53;11.13;;;6.20;99.90;;;;;;5019247;28;20232;-81
2022/05/30 01:58:44;;;;;;;11.27;10.87;;;6.10;99.90;;;;;;5019966;28;20235;-81
2022/05/30 02:01:18;;;;;;;11.23;10.83;;;6.00;99.90;;;;;;5020026;28;21032;-82
2022/05/30 02:03:47;;;;;;;11.30;10.90;;;6.00;99.90;;;;;;5020841;28;20251;-81
2022/05/30 02:06:14;;;;;;;11.40;11.00;;;6.00;99.90;;;;;;5020839;28;20326;-82
2022/05/30 02:08:42;;;;;;;11.30;10.90;;;5.90;99.90;;;;;;5020248;28;20231;-81
2022/05/30 02:11:10;;;;;;;11.30;10.90;;;5.90;99.90;;;;;;5020605;28;20236;-81
2022/05/30 02:13:39;;;;;;;11.40;11.00;;;5.90;99.90;;;;;;5019897;28;20233;-83
2022/05/30 02:18:58;;;;;;;11.33;10.93;;;5.90;99.90;;;;;;5020453;28;20224;-81
2022/05/30 02:21:26;;;;;;;11.37;10.97;;;5.90;99.90;;;;;;5020065;28;20232;-81
2022/05/30 02:23:54;;;;;;;11.27;10.87;;;5.90;99.90;;;;;;5018091;28;20236;-81
2022/05/30 02:26:24;;;;;;;11.47;11.07;;;5.90;99.90;;;;;;5017081;28;20236;-81
2022/05/30 02:28:52;;;;;;;11.10;10.70;;;5.80;99.90;;;;;;5017121;28;20224;-81
2022/05/30 02:31:24;;;;;;;11.17;10.77;;;5.80;99.90;;;;;;5018417;28;20313;-81
2022/05/30 02:36:44;;;;;;;11.20;10.80;;;5.80;99.90;;;;;;5018714;28;20224;-81
2022/05/30 02:39:17;;;;;;;11.13;10.73;;;5.70;99.90;;;;;;5021891;28;20224;-81
2022/05/30 02:41:46;;;;;;;11.50;11.10;;;5.70;99.90;;;;;;5022282;28;20208;-81
2022/05/30 02:44:18;;;;;;;11.30;10.90;;;5.60;99.90;;;;;;5021487;28;20236;-83
2022/05/30 02:46:48;;;;;;;11.37;10.97;;;5.60;99.90;;;;;;5021061;28;20224;-82
2022/05/30 02:49:16;;;;;;;11.40;11.00;;;5.60;99.90;;;;;;5021221;28;20301;-81
2022/05/30 02:51:44;;;;;;;11.90;11.50;;;5.60;99.90;;;;;;5020847;28;20233;-81
2022/05/30 02:54:13;;;;;;;11.77;11.37;;;5.60;99.90;;;;;;5020601;28;20301;-81
2022/05/30 02:56:42;;;;;;;11.90;11.50;;;5.50;99.90;;;;;;5020812;28;20224;-81
2022/05/30 02:59:12;;;;;;;11.67;11.27;;;5.50;99.90;;;;;;5020260;28;20297;-82
2022/05/30 03:01:41;;;;;;;12.07;11.67;;;5.50;99.90;;;;;;5025125;28;20212;-81
2022/05/30 03:04:12;;;;;;;11.80;11.40;;;5.50;99.90;;;;;;5024931;28;20260;-81
2022/05/30 03:06:41;;;;;;;11.73;11.33;;;5.40;99.90;;;;;;5021181;28;20236;-82
2022/05/30 03:09:10;;;;;;;11.90;11.50;;;5.40;99.90;;;;;;5020592;28;20282;-82
2022/05/30 03:11:39;;;;;;;11.70;11.30;;;5.40;99.90;;;;;;5019316;28;20217;-81
2022/05/30 03:14:09;;;;;;;11.93;11.53;;;5.50;99.90;;;;;;5018314;28;20236;-81
2022/05/30 03:16:38;;;;;;;12.00;11.60;;;5.40;99.90;;;;;;5020837;28;20377;-81
2022/05/30 03:19:06;;;;;;;11.90;11.50;;;5.40;99.90;;;;;;5020484;28;20270;-82
2022/05/30 03:21:37;;;;;;;12.00;11.60;;;5.40;99.90;;;;;;5020400;28;20229;-82
2022/05/30 03:24:07;;;;;;;11.60;11.20;;;5.40;99.90;;;;;;5019807;28;20273;-81
2022/05/30 03:26:37;;;;;;;11.60;11.20;;;5.30;99.90;;;;;;5020028;28;20327;-81
2022/05/30 03:29:05;;;;;;;11.73;11.33;;;5.30;99.90;;;;;;5019834;28;20240;-82
2022/05/30 03:31:35;;;;;;;11.97;11.57;;;5.30;99.90;;;;;;5019440;28;20231;-81
2022/05/30 03:34:04;;;;;;;11.90;11.50;;;5.30;99.90;;;;;;5019836;28;20361;-83
2022/05/30 03:36:36;;;;;;;11.70;11.30;;;5.30;99.90;;;;;;5019973;28;20239;-82
2022/05/30 03:39:04;;;;;;;11.60;11.20;;;5.20;99.90;;;;;;5019826;28;20266;-83
2022/05/30 03:41:32;;;;;;;11.60;11.20;;;5.20;99.90;;;;;;5019526;28;20263;-82
2022/05/30 03:44:02;;;;;;;11.53;11.13;;;5.20;99.90;;;;;;5020619;28;20270;-81
2022/05/30 03:46:32;;;;;;;11.80;11.40;;;5.10;99.90;;;;;;5020660;28;20285;-82
2022/05/30 03:49:01;;;;;;;11.50;11.10;;;5.10;99.90;;;;;;5027984;28;20256;-81
2022/05/30 03:51:28;;;;;;;11.70;11.30;;;5.10;99.90;;;;;;5032181;28;20229;-81
2022/05/30 03:54:04;;;;;;;11.70;11.30;;;5.10;99.90;;;;;;5033206;28;20557;-80
2022/05/30 03:56:31;;;;;;;11.70;11.30;;;5.10;99.90;;;;;;5030819;28;20232;-82
2022/05/30 03:58:59;;;;;;;11.67;11.27;;;5.10;99.90;;;;;;5022947;28;20236;-81
2022/05/30 04:01:27;;;;;;;11.67;11.27;;;5.10;99.90;;;;;;5026612;28;20224;-81
2022/05/30 04:04:00;;;;;;;11.90;11.50;;;5.10;99.90;;;;;;5024543;28;20240;-81
2022/05/30 04:06:29;;;;;;;11.80;11.40;;;5.00;99.90;;;;;;5019962;28;20232;-81
2022/05/30 04:09:01;;;;;;;12.00;11.60;;;5.00;99.90;;;;;;5020248;28;20240;-80
2022/05/30 04:11:30;;;;;;;12.10;11.70;;;5.00;99.90;;;;;;5020059;28;20228;-81
2022/05/30 04:13:58;;;;;;;11.70;11.30;;;5.00;99.90;;;;;;5019814;28;20227;-81
2022/05/30 04:16:25;;;;;;;11.83;11.43;;;5.00;99.90;;;;;;5031057;22;20270;-79
2022/05/30 04:18:53;;;;;;;11.97;11.57;;;5.00;99.90;;;;;;5016391;28;20275;-79
2022/05/30 04:21:22;;;;;;;11.90;11.50;;;5.10;99.90;;;;;;5018036;28;21176;-79
2022/05/30 04:23:49;;;;;;;12.13;11.73;;;5.10;99.90;;;;;;5017808;28;20240;-79
2022/05/30 04:26:18;;;;;;;11.80;11.40;;;5.10;99.90;;;;;;5017002;28;20255;-79
2022/05/30 04:28:46;;;;;;;11.73;11.33;;;5.20;99.90;;;;;;5017715;28;20784;-79
2022/05/30 04:31:15;;;;;;;11.63;11.23;;;5.20;99.90;;;;;;5017870;28;20228;-79
2022/05/30 04:33:44;;;;;;;11.63;11.23;;;5.30;99.90;;;;;;5017548;28;20242;-79
2022/05/30 04:36:15;;;;;;;11.90;11.50;;;5.40;99.90;;;;;;5030275;27;20236;-78
2022/05/30 04:38:42;;;;;;;11.60;11.20;;;5.50;99.90;;;;;;5035392;28;20224;-78
2022/05/30 04:41:10;;;;;;;11.63;11.23;;;5.50;99.90;;;;;;5034892;28;20236;-78
2022/05/30 04:43:39;;;;;;;11.77;11.37;;;5.50;99.90;;;;;;5029223;28;20236;-78
2022/05/30 04:46:11;;;;;;;11.87;11.47;;;5.60;99.90;;;;;;5019562;28;20232;-80
2022/05/30 04:48:40;;;;;;;11.77;11.37;;;5.60;99.90;;;;;;5018891;28;20240;-79
2022/05/30 04:51:11;;;;;;;11.57;11.17;;;5.70;99.90;;;;;;5016650;28;20260;-79
2022/05/30 04:53:40;;;;;;;11.77;11.37;;;5.70;99.90;;;;;;5018399;28;20286;-80
2022/05/30 04:56:09;;;;;;;11.53;11.13;;;5.80;99.90;;;;;;5017325;28;20295;-80
2022/05/30 04:58:40;;;;;;;11.87;11.47;;;5.90;99.90;;;;;;5017764;28;20233;-80
2022/05/30 05:01:10;;;;;;;12.10;11.70;;;6.00;99.90;;;;;;5017660;28;20227;-79
2022/05/30 05:03:39;;;;;;;12.03;11.63;;;6.10;99.90;;;;;;5018044;28;20256;-78
2022/05/30 05:06:18;;;;;;;11.73;11.33;;;6.10;99.90;;;;;;5017552;28;20254;-79
2022/05/30 05:08:54;;;;;;;12.00;11.60;;;6.20;99.90;;;;;;5018224;28;20236;-79
2022/05/30 05:11:27;;;;;;;12.03;11.63;;;6.30;99.90;;;;;;5017111;28;20228;-79
2022/05/30 05:14:05;;;;;;;12.03;11.63;;;6.50;99.90;;;;;;5017371;28;20236;-79
2022/05/30 05:16:32;;;;;;;11.97;11.57;;;6.60;99.90;;;;;;5016987;28;20240;-79
2022/05/30 05:19:00;;;;;;;11.90;11.50;;;6.70;99.90;;;;;;5017045;28;20232;-79
2022/05/30 05:21:31;;;;;;;12.23;11.83;;;6.80;99.90;;;;;;5018453;28;20251;-79
2022/05/30 05:24:00;;;;;;;12.40;12.00;;;6.90;99.90;;;;;;5020252;28;20282;-79
2022/05/30 05:26:29;;;;;;;12.40;12.00;;;7.00;99.90;;;;;;5017185;28;20235;-81
2022/05/30 05:29:01;;;;;;;12.40;12.00;;;7.10;99.90;;;;;;5016792;28;20228;-80
2022/05/30 05:31:39;;;;;;;12.40;12.00;;;7.20;99.90;;;;;;5017646;28;20231;-80
2022/05/30 05:34:09;;;;;;;12.40;12.00;;;7.30;99.90;;;;;;5018211;28;20311;-80
2022/05/30 05:36:46;;;;;;;12.23;11.83;;;7.40;99.90;;;;;;5017453;28;20232;-80
2022/05/30 05:39:17;;;;;;;12.30;11.90;;;7.50;99.90;;;;;;5017812;28;20224;-80
2022/05/30 05:41:46;;;;;;;12.10;11.70;;;7.60;99.90;;;;;;5017567;28;20236;-80
2022/05/30 05:44:22;;;;;;;11.80;11.40;;;7.60;99.90;;;;;;5017215;28;20282;-80
2022/05/30 05:46:51;;;;;;;11.70;11.30;;;7.80;99.90;;;;;;5017289;28;20273;-80
2022/05/30 05:49:22;;;;;;;11.87;11.47;;;7.90;99.90;;;;;;5017291;28;20250;-80
2022/05/30 05:51:54;;;;;;;11.90;11.50;;;8.00;99.90;;;;;;5017291;28;20278;-80
2022/05/30 05:54:23;;;;;;;11.80;11.40;;;8.00;99.90;;;;;;5017714;28;20236;-80
2022/05/30 05:56:51;;;;;;;12.10;11.70;;;8.10;99.90;;;;;;5016996;28;20248;-80
2022/05/30 05:59:22;;;;;;;12.10;11.70;;;8.30;99.90;;;;;;5017647;28;20223;-80
2022/05/30 06:01:50;;;;;;;11.77;11.37;;;8.30;99.90;;;;;;5017123;28;20228;-80
2022/05/30 06:04:18;;;;;;;11.73;11.33;;;8.50;99.90;;;;;;5016257;28;20244;-80
2022/05/30 06:06:48;;;;;;;11.50;11.10;;;8.50;99.90;;;;;;5016211;28;20240;-80
2022/05/30 06:09:17;;;;;;;11.30;10.93;;;8.70;99.90;;;;;;5016567;28;20233;-81
2022/05/30 06:11:46;;;;;;;11.77;11.37;;;8.70;99.90;;;;;;5016761;28;20229;-80
2022/05/30 06:14:16;;;;;;;11.50;11.10;;;8.70;99.90;;;;;;5020260;28;20243;-80
2022/05/30 06:16:55;;;;;;;11.80;11.40;;;8.70;99.90;;;;;;5019160;28;20297;-79
2022/05/30 06:19:24;;;;;;;11.43;11.03;;;8.90;99.90;;;;;;5019998;28;20235;-80
2022/05/30 06:21:53;;;;;;;11.37;10.97;;;9.00;99.90;;;;;;5020063;28;20255;-80
2022/05/30 06:24:22;;;;;;;11.53;11.13;;;9.20;99.90;;;;;;5019953;28;20247;-80
2022/05/30 06:26:52;;;;;;;11.03;10.73;;;9.30;99.90;;;;;;5020091;28;20294;-80
2022/05/30 06:29:21;;;;;;;11.07;10.77;;;9.50;99.90;;;;;;5020420;28;20314;-80
2022/05/30 06:32:00;;;;;;;11.10;10.80;;;9.60;99.90;;;;;;5020289;28;20271;-80
2022/05/30 06:34:30;;;;;;;11.30;10.90;;;9.70;99.90;;;;;;5022319;28;20236;-80
2022/05/30 06:36:59;;;;;;;11.10;10.80;;;9.90;99.90;;;;;;5023757;28;20244;-81
2022/05/30 06:39:28;;;;;;;11.10;10.80;;;10.00;99.90;;;;;;5023979;28;20228;-80
2022/05/30 06:41:57;;;;;;;11.03;10.73;;;10.10;99.90;;;;;;5021747;28;20224;-80
2022/05/30 06:44:27;;;;;;;11.10;10.80;;;10.20;99.90;;;;;;5022012;28;20240;-81
2022/05/30 06:46:56;;;;;;;11.00;10.70;;;10.40;99.90;;;;;;5019846;28;20240;-80
2022/05/30 06:49:23;;;;;;;11.33;10.97;;;10.50;99.90;;;;;;5019081;28;20263;-80
2022/05/30 06:51:51;;;;;;;10.57;10.27;;;10.50;99.90;;;;;;5020415;28;20236;-80
2022/05/30 06:54:20;;;;;;;10.80;10.50;;;10.60;99.90;;;;;;5020053;28;20255;-80
2022/05/30 06:59:29;;;;;;;11.00;10.70;;;10.70;99.90;;;;;;5018526;28;20227;-79
2022/05/30 07:02:00;;;;;;;11.20;10.90;;;10.70;99.90;;;;;;5019164;28;20244;-80
2022/05/30 07:04:30;;;;;;;10.60;10.30;;;10.80;99.90;;;;;;5019092;28;20236;-80
2022/05/30 07:07:04;;;;;;;10.40;10.10;;;10.80;99.90;;;;;;5018485;28;20711;-80
2022/05/30 07:09:31;;;;;;;10.10;9.80;;;10.80;99.90;;;;;;5019956;28;20228;-79
2022/05/30 07:12:00;;;;;;;10.10;9.80;;;10.90;99.90;;;;;;5023351;28;20250;-81
2022/05/30 07:14:28;;;;;;;10.27;9.97;;;11.00;99.90;;;;;;5022949;28;20236;-79
2022/05/30 07:16:57;;;;;;;10.60;10.30;;;11.00;99.90;;;;;;5030191;28;20255;-79
2022/05/30 07:19:25;;;;;;;10.60;10.30;;;11.10;99.90;;;;;;5042087;27;20253;-79
2022/05/30 07:21:54;;;;;;;10.60;10.30;;;11.20;99.90;;;;;;5042137;27;20240;-81
2022/05/30 07:24:21;;;;;;;10.63;10.33;;;11.30;99.90;;;;;;5042112;28;20261;-81
2022/05/30 07:26:49;;;;;;;10.80;10.50;;;11.50;99.90;;;;;;5041684;28;20342;-80
2022/05/30 07:29:21;;;;;;;10.63;10.33;;;11.70;99.90;;;;;;5040630;28;20234;-81
2022/05/30 07:31:49;;;;;;;10.80;10.50;;;11.80;99.90;;;;;;5040016;27;20231;-80
2022/05/30 07:34:18;;;;;;;10.80;10.50;;;11.90;99.90;;;;;;5040679;28;20257;-81
2022/05/30 07:36:46;;;;;;;11.10;10.80;;;12.00;99.90;;;;;;5041398;28;20232;-80
2022/05/30 07:39:13;;;;;;;10.80;10.50;;;12.20;99.90;;;;;;5041765;27;20224;-80
2022/05/30 07:41:41;;;;;;;10.90;10.60;;;12.10;99.90;;;;;;5042023;28;20235;-80
2022/05/30 07:44:09;;;;;;;10.73;10.43;;;12.30;99.90;;;;;;5041473;28;20240;-83
2022/05/30 07:46:39;;;;;;;10.70;10.40;;;12.40;99.90;;;;;;5040778;28;20261;-80
2022/05/30 07:49:06;;;;;;;10.80;10.50;;;12.40;99.90;;;;;;5039930;28;20307;-82
2022/05/30 07:51:36;;;;;;;10.43;10.13;;;12.40;99.90;;;;;;5041166;28;20216;-82
2022/05/30 07:54:04;;;;;;;10.40;10.10;;;12.60;99.90;;;;;;5040013;28;20239;-81
2022/05/30 07:56:37;;;;;;;10.53;10.23;;;12.70;99.90;;;;;;5041073;28;20235;-80
2022/05/30 07:59:06;;;;;;;10.80;10.50;;;12.90;99.90;;;;;;5041483;28;20243;-79
2022/05/30 08:01:35;;;;;;;10.70;10.40;;;13.10;99.90;;;;;;5040360;28;20227;-79
2022/05/30 08:04:04;;;;;;;10.70;10.40;;;13.20;99.90;;;;;;5041444;28;20237;-79
2022/05/30 08:06:34;;;;;;;10.63;10.33;;;13.30;99.90;;;;;;5041054;28;20271;-79
2022/05/30 08:09:32;;;;;;;10.70;10.40;;;13.50;99.90;;;;;;5040830;28;20224;-83
2022/05/30 08:12:01;;;;;;;10.90;10.60;;;13.70;99.90;;;;;;5032635;28;20214;-79
2022/05/30 08:14:30;;;;;;;10.70;10.40;;;13.70;99.90;;;;;;5041891;28;20232;-79
2022/05/30 08:17:00;;;;;;;10.40;10.10;;;13.70;99.90;;;;;;5041067;28;20295;-79
2022/05/30 08:19:30;;;;;;;10.47;10.17;;;13.90;99.90;;;;;;5042767;28;20299;-79
2022/05/30 08:22:07;;;;;;;10.43;10.13;;;14.00;99.90;;;;;;5042353;28;20227;-79
2022/05/30 08:24:47;;;;;;;10.43;10.13;;;14.10;99.90;;;;;;5041504;28;20296;-80
2022/05/30 08:27:15;;;;;;;10.40;10.10;;;14.40;99.90;;;;;;5040995;28;20261;-80
2022/05/30 08:29:44;;;;;;;10.60;10.30;;;14.50;99.90;;;;;;5041571;28;20236;-81
2022/05/30 08:32:14;;;;;;;10.23;9.93;;;14.60;99.90;;;;;;5040447;28;20231;-80
2022/05/30 08:34:44;;;;;;;10.70;10.40;;;14.90;99.90;;;;;;5040563;28;20322;-80
2022/05/30 08:37:14;;;;;;;10.50;10.20;;;15.10;99.90;;;;;;5041267;28;20270;-79
2022/05/30 08:42:31;;;;;;;10.85;10.55;;;15.30;99.90;;;;;;5010354;28;20240;-81
2022/05/30 08:45:00;;;;;;;10.75;10.45;;;15.20;99.90;;;;;;5020598;28;20246;-80
2022/05/30 08:47:48;;;;;;;11.10;10.80;;;15.40;99.90;;;;;;5019839;28;20243;-81
2022/05/30 08:50:31;;;;;;;10.90;10.60;;;15.70;99.90;;;;;;5021571;28;20237;-81
2022/05/30 08:53:46;;;;;;;11.20;10.80;;;15.90;99.90;;;;;;5020497;28;20220;-81
2022/05/30 08:56:26;;;;;;;10.85;10.55;;;16.40;99.90;;;;;;5020309;28;20232;-82
2022/05/30 08:59:12;;;;;;;11.13;10.82;;;16.60;99.90;;;;;;5021395;28;20266;-81
2022/05/30 09:01:50;;;;;;;11.30;11.00;;;16.70;99.90;;;;;;5020591;28;20235;-83
2022/05/30 09:04:54;;;;;;;10.60;10.30;;;16.60;99.90;;;;;;5019563;28;20933;-81
2022/05/30 09:07:32;;;;;;;10.82;10.52;;;16.80;99.90;;;;;;5020020;28;20240;-81
2022/05/30 09:13:08;;;;;;;11.05;10.75;;;17.20;99.90;;;;;;5019692;28;20327;-81
2022/05/30 09:15:47;;;;;;;11.00;10.70;;;17.50;99.90;;;;;;5019942;28;20234;-82
2022/05/30 09:18:23;;;;;;;10.60;10.30;;;17.90;99.90;;;;;;5023700;28;20243;-81
2022/05/30 09:20:53;;;;;;;10.90;10.60;;;18.20;99.90;;;;;;5022934;28;20220;-81
2022/05/30 09:23:31;;;;;;;10.65;10.35;;;18.30;99.90;;;;;;5021434;28;20266;-82
2022/05/30 09:26:07;;;;;;;10.48;10.18;;;18.70;99.90;;;;;;5021253;28;20240;-81
2022/05/30 09:28:56;;;;;;;10.70;10.40;;;18.90;99.90;;;;;;5022088;28;20220;-81
2022/05/30 09:31:43;;;;;;;10.73;10.43;;;19.20;99.90;;;;;;5021963;28;20262;-81
2022/05/30 09:34:40;;;;;;;11.00;10.70;;;19.60;99.90;;;;;;5021598;28;20236;-81
2022/05/30 09:37:08;;;;;;;10.93;10.63;;;20.00;99.90;;;;;;5022249;28;20223;-81
2022/05/30 09:39:49;;;;;;;10.93;10.63;;;20.20;99.90;;;;;;5022967;28;20357;-82
2022/05/30 09:42:34;;;;;;;10.98;10.68;;;19.80;99.90;;;;;;5022401;28;20236;-81
2022/05/30 09:45:32;;;;;;;10.93;10.63;;;19.50;99.90;;;;;;5022497;28;20262;-82
2022/05/30 09:48:10;;;;;;;11.05;10.75;;;18.90;99.90;;;;;;5025599;28;20238;-82
2022/05/30 09:50:45;;;;;;;11.38;10.98;;;18.80;99.90;;;;;;5025842;28;20232;-81
2022/05/30 09:53:15;;;;;;;11.18;10.88;;;19.00;99.90;;;;;;5024993;28;20236;-82
2022/05/30 09:55:55;;;;;;;11.10;10.80;;;19.20;99.90;;;;;;5027842;28;20291;-81
2022/05/30 09:58:59;;;;;;;10.80;10.50;;;19.50;99.90;;;;;;5027317;27;20218;-80
2022/05/30 10:04:33;;;;;;;11.00;10.70;;;19.70;99.90;;;;;;5030153;27;20239;-81
2022/05/30 10:07:21;;;;;;;10.68;10.38;;;20.20;99.90;;;;;;5034904;28;20232;-81
2022/05/30 10:10:00;;;;;;;10.93;10.63;;;20.10;99.90;;;;;;5025465;28;20228;-82
2022/05/30 10:12:38;;;;;;;11.10;10.80;;;20.30;99.90;;;;;;5018535;28;20253;-82
2022/05/30 10:15:26;;;;;;;10.70;10.40;;;20.20;99.90;;;;;;5025895;28;20232;-80
2022/05/30 10:17:58;;;;;;;10.80;10.50;;;20.30;99.90;;;;;;5044907;22;20288;-82
2022/05/30 10:20:42;;;;;;;10.90;10.60;;;20.50;99.90;;;;;;5036851;28;20228;-80
2022/05/30 10:29:29;;;;;;;11.45;11.07;;;19.50;99.90;;;;;;5028387;28;20232;-82
2022/05/30 10:32:09;;;;;;;11.63;11.23;;;19.30;99.90;;;;;;5022721;28;20228;-81
2022/05/30 10:35:11;;;;;;;11.80;11.40;;;18.70;99.90;;;;;;5021602;28;20228;-81
2022/05/30 10:38:09;;;;;;;11.70;11.30;;;18.50;99.90;;;;;;5020732;28;20240;-81
2022/05/30 10:41:05;;;;;;;11.80;11.40;;;18.70;99.90;;;;;;5019708;28;20250;-80
2022/05/30 10:43:51;;;;;;;11.77;11.38;;;19.20;99.90;;;;;;5021261;28;20231;-82
2022/05/30 10:46:27;;;;;;;11.25;10.95;;;19.80;99.90;;;;;;5021016;28;20240;-83
2022/05/30 10:49:09;;;;;;;11.65;11.25;;;20.30;99.90;;;;;;5020323;28;20240;-83
2022/05/30 10:51:54;;;;;;;10.90;10.60;;;20.90;99.90;;;;;;5020831;28;20307;-82
2022/05/30 10:54:40;;;;;;;10.98;10.68;;;21.00;99.90;;;;;;5025680;28;20232;-86
2022/05/30 10:57:19;;;;;;;11.10;10.80;;;20.80;99.90;;;;;;5037299;27;20224;-85
2022/05/30 11:03:29;;;;;;;11.10;10.80;;;20.80;99.90;;;;;;5020221;28;20227;-84
2022/05/30 11:06:07;;;;;;;10.65;10.35;;;21.10;99.90;;;;;;5021701;28;20240;-84
2022/05/30 11:08:53;;;;;;;10.70;10.40;;;21.30;99.90;;;;;;5019820;28;20724;-86
2022/05/30 11:11:33;;;;;;;11.00;10.70;;;21.20;99.90;;;;;;5024312;28;20327;-87
2022/05/30 11:17:23;;;;;;;11.10;10.80;;;21.20;99.90;;;;;;5028408;28;20215;-87
2022/05/30 11:20:04;;;;;;;11.32;11.02;;;21.30;99.90;;;;;;5024105;28;20305;-86
2022/05/30 11:22:49;;;;;;;11.15;10.85;;;20.90;99.90;;;;;;5022162;28;20346;-86
2022/05/30 11:26:02;;;;;;;11.63;11.23;;;20.60;99.90;;;;;;5021049;28;20250;-86
2022/05/30 11:29:25;;;;;;;11.23;10.93;;;20.50;99.90;;;;;;5019844;28;20239;-86
2022/05/30 11:32:22;;;;;;;11.57;11.18;;;20.70;99.90;;;;;;5019932;28;20251;-85
2022/05/30 11:35:09;;;;;;;11.82;11.43;;;20.90;99.90;;;;;;5019926;28;20228;-84
2022/05/30 11:38:20;;;;;;;11.80;11.40;;;21.50;99.90;;;;;;5019291;28;20240;-84
2022/05/30 11:41:09;;;;;;;11.80;11.40;;;22.10;99.90;;;;;;5020590;28;20228;-82
2022/05/30 11:44:12;;;;;;;11.93;11.52;;;21.60;99.90;;;;;;5021522;28;20234;-84
2022/05/30 11:46:51;;;;;;;11.73;11.32;;;22.10;99.90;;;;;;5018081;28;20240;-85
2022/05/30 11:49:35;;;;;;;11.70;11.30;;;22.40;99.90;;;;;;5019309;28;20236;-85
2022/05/30 11:55:21;;;;;;;11.48;11.18;;;22.90;99.90;;;;;;5015982;28;20240;-85
2022/05/30 11:57:58;;;;;;;11.27;10.98;;;23.90;99.90;;;;;;5022220;28;20244;-83
2022/05/30 12:00:36;;;;;;;10.93;10.63;;;24.10;99.90;;;;;;5026734;28;20231;-83
2022/05/30 12:03:58;;;;;;;11.05;10.75;;;24.10;99.90;;;;;;5025965;28;20235;-80
2022/05/30 12:06:56;;;;;;;11.07;10.77;;;24.70;99.90;;;;;;5062748;28;20236;-83
2022/05/30 12:10:00;;;;;;;11.60;11.20;;;24.80;99.90;;;;;;5020551;28;20228;-84
2022/05/30 12:12:48;;;;;;;11.63;11.23;;;24.70;99.90;;;;;;5022283;28;20224;-83
2022/05/30 12:16:02;;;;;;;11.32;11.02;;;24.20;99.90;;;;;;5021979;28;20240;-82
2022/05/30 12:24:40;;;;;;;11.25;10.95;;;24.10;99.90;;;;;;5022991;28;20228;-82
2022/05/30 12:27:43;;;;;;;11.10;10.80;;;23.90;99.90;;;;;;5020912;28;20252;-83
2022/05/30 12:30:49;;;;;;;11.75;11.35;;;23.40;99.90;;;;;;5020636;28;20275;-84
2022/05/30 12:33:56;;;;;;;11.55;11.15;;;22.90;99.90;;;;;;5020169;28;20259;-86
2022/05/30 12:36:40;;;;;;;11.27;10.98;;;22.30;99.90;;;;;;5031590;27;20238;-86
2022/05/30 12:39:38;;;;;;;11.70;11.30;;;21.70;99.90;;;;;;5039354;28;20215;-85
2022/05/30 12:45:46;;;;;;;11.30;11.00;;;20.80;99.90;;;;;;5036509;28;20258;-86
2022/05/30 12:48:23;;;;;;;11.07;10.77;;;20.90;99.90;;;;;;5028241;28;20247;-84
2022/05/30 12:51:21;;;;;;;10.60;10.30;;;20.80;99.90;;;;;;5019399;28;20251;-86
2022/05/30 12:54:45;;;;;;;10.55;10.25;;;20.50;99.90;;;;;;5018654;28;20234;-86
2022/05/30 12:57:46;;;;;;;10.93;10.63;;;20.20;99.90;;;;;;5009205;28;20322;-85
2022/05/30 13:00:51;;;;;;;10.82;10.52;;;20.40;99.90;;;;;;4999337;28;20240;-86
2022/05/30 13:03:48;;;;;;;10.70;10.40;;;20.90;99.90;;;;;;4998737;28;20266;-86
2022/05/30 13:06:25;;;;;;;10.70;10.40;;;21.80;99.90;;;;;;4998895;28;21062;-86
2022/05/30 13:09:33;;;;;;;10.90;10.60;;;22.80;99.90;;;;;;5000310;28;20243;-85
2022/05/30 13:12:51;;;;;;;10.85;10.55;;;23.50;99.90;;;;;;5003709;28;20221;-86
2022/05/30 13:15:30;;;;;;;11.18;10.88;;;24.20;99.90;;;;;;4998535;28;20223;-85
2022/05/30 13:18:08;;;;;;;11.40;11.10;;;24.00;99.90;;;;;;4998254;28;20240;-85
2022/05/30 13:20:47;;;;;;;11.50;11.20;;;23.40;99.90;;;;;;4998032;28;20716;-84
2022/05/30 13:23:35;;;;;;;11.07;10.77;;;22.90;99.90;;;;;;5000002;28;20228;-85
2022/05/30 13:26:05;;;;;;;11.07;10.77;;;22.50;99.90;;;;;;5017708;28;20229;-86
2022/05/30 13:31:21;;;;;;;11.20;10.90;;;22.20;99.90;;;;;;5017773;28;20232;-86
2022/05/30 13:34:06;;;;;;;11.07;10.77;;;22.00;99.90;;;;;;5017676;28;20224;-86
2022/05/30 13:36:35;;;;;;;11.27;10.98;;;21.60;99.90;;;;;;5018866;28;20266;-87
2022/05/30 13:39:14;;;;;;;11.00;10.70;;;21.30;99.90;;;;;;5019755;28;20293;-87
2022/05/30 13:41:43;;;;;;;11.20;10.90;;;21.10;99.90;;;;;;5018794;28;20228;-86
2022/05/30 13:44:14;;;;;;;10.70;10.40;;;20.70;99.90;;;;;;5018807;28;20232;-85
2022/05/30 13:49:40;;;;;;;10.80;10.50;;;20.60;99.90;;;;;;5014905;28;20232;-84
2022/05/30 13:52:17;;;;;;;10.82;10.52;;;20.20;99.90;;;;;;5024572;28;20260;-83
2022/05/30 13:54:56;;;;;;;10.73;10.43;;;20.00;99.90;;;;;;5029066;28;20288;-85
2022/05/30 14:04:43;;;;;;;10.60;10.30;;;20.50;99.90;;;;;;4982171;28;20262;-82
2022/05/30 14:07:21;;;;;;;10.60;10.30;;;20.70;99.90;;;;;;5048149;28;20342;-82
2022/05/30 14:09:57;;;;;;;10.48;10.18;;;21.00;99.90;;;;;;5028102;28;20235;-81
2022/05/30 14:12:32;;;;;;;10.70;10.40;;;21.10;99.90;;;;;;5021641;28;20238;-83
2022/05/30 14:15:21;;;;;;;11.35;10.95;;;21.10;99.90;;;;;;5029083;28;20228;-83